sensor_id;sensor_type;location;lat;lon;timestamp;temperature;humidity
37560;DHT22;23398;50.928;7.084;2023-03-01T00:01:33;1.20;54.90
37560;DHT22;23398;50.928;7.084;2023-03-01T00:03:59;1.10;54.90
37560;DHT22;23398;50.928;7.084;2023-03-01T00:06:26;1.10;55.00
37560;DHT22;23398;50.928;7.084;2023-03-01T00:08:52;1.00;55.10
37560;DHT22;23398;50.928;7.084;2023-03-01T00:11:24;1.00;55.20
37560;DHT22;23398;50.928;7.084;2023-03-01T00:13:52;0.90;55.10
37560;DHT22;23398;50.928;7.084;2023-03-01T00:16:21;0.90;55.20
37560;DHT22;23398;50.928;7.084;2023-03-01T00:18:47;1.00;55.40
37560;DHT22;23398;50.928;7.084;2023-03-01T00:21:13;0.90;55.40
37560;DHT22;23398;50.928;7.084;2023-03-01T00:23:39;0.90;55.50
37560;DHT22;23398;50.928;7.084;2023-03-01T00:26:10;0.90;55.40
37560;DHT22;23398;50.928;7.084;2023-03-01T00:28:37;0.90;55.50
37560;DHT22;23398;50.928;7.084;2023-03-01T00:31:13;0.90;55.60
37560;DHT22;23398;50.928;7.084;2023-03-01T00:33:39;1.00;55.90
37560;DHT22;23398;50.928;7.084;2023-03-01T00:36:05;1.00;56.00
37560;DHT22;23398;50.928;7.084;2023-03-01T00:38:35;1.00;56.10
37560;DHT22;23398;50.928;7.084;2023-03-01T00:41:06;1.10;56.20
37560;DHT22;23398;50.928;7.084;2023-03-01T00:43:31;1.10;56.30
37560;DHT22;23398;50.928;7.084;2023-03-01T00:46:07;1.10;56.10
37560;DHT22;23398;50.928;7.084;2023-03-01T00:48:33;1.10;56.00
37560;DHT22;23398;50.928;7.084;2023-03-01T00:51:26;1.10;56.00
37560;DHT22;23398;50.928;7.084;2023-03-01T00:53:55;1.10;56.20
37560;DHT22;23398;50.928;7.084;2023-03-01T00:56:22;1.10;55.90
37560;DHT22;23398;50.928;7.084;2023-03-01T00:58:48;1.00;55.70
37560;DHT22;23398;50.928;7.084;2023-03-01T01:01:19;1.00;55.70
37560;DHT22;23398;50.928;7.084;2023-03-01T01:04:00;1.00;55.60
37560;DHT22;23398;50.928;7.084;2023-03-01T01:06:35;1.00;55.80
37560;DHT22;23398;50.928;7.084;2023-03-01T01:09:02;1.00;56.00
37560;DHT22;23398;50.928;7.084;2023-03-01T01:11:29;0.90;55.80
37560;DHT22;23398;50.928;7.084;2023-03-01T01:13:55;1.00;56.00
37560;DHT22;23398;50.928;7.084;2023-03-01T01:16:23;1.00;56.50
37560;DHT22;23398;50.928;7.084;2023-03-01T01:18:49;1.00;56.20
37560;DHT22;23398;50.928;7.084;2023-03-01T01:21:17;1.00;56.40
37560;DHT22;23398;50.928;7.084;2023-03-01T01:23:44;1.00;56.40
37560;DHT22;23398;50.928;7.084;2023-03-01T01:26:13;1.00;56.40
37560;DHT22;23398;50.928;7.084;2023-03-01T01:28:39;1.10;56.40
37560;DHT22;23398;50.928;7.084;2023-03-01T01:31:05;1.00;56.20
37560;DHT22;23398;50.928;7.084;2023-03-01T01:33:31;1.10;56.30
37560;DHT22;23398;50.928;7.084;2023-03-01T01:35:57;1.10;56.20
37560;DHT22;23398;50.928;7.084;2023-03-01T01:38:23;1.00;56.20
37560;DHT22;23398;50.928;7.084;2023-03-01T01:40:50;1.10;56.40
37560;DHT22;23398;50.928;7.084;2023-03-01T01:45:47;1.10;56.80
37560;DHT22;23398;50.928;7.084;2023-03-01T01:48:18;1.10;56.70
37560;DHT22;23398;50.928;7.084;2023-03-01T01:50:45;1.10;56.80
37560;DHT22;23398;50.928;7.084;2023-03-01T01:53:17;1.00;56.60
37560;DHT22;23398;50.928;7.084;2023-03-01T01:55:51;1.00;56.80
37560;DHT22;23398;50.928;7.084;2023-03-01T01:58:19;1.00;56.90
37560;DHT22;23398;50.928;7.084;2023-03-01T02:00:45;1.00;56.70
37560;DHT22;23398;50.928;7.084;2023-03-01T02:03:15;0.90;56.60
37560;DHT22;23398;50.928;7.084;2023-03-01T02:06:05;0.80;56.40
37560;DHT22;23398;50.928;7.084;2023-03-01T02:08:33;0.80;56.40
37560;DHT22;23398;50.928;7.084;2023-03-01T02:11:00;0.70;56.30
37560;DHT22;23398;50.928;7.084;2023-03-01T02:13:27;0.60;56.40
37560;DHT22;23398;50.928;7.084;2023-03-01T02:15:53;0.50;56.60
37560;DHT22;23398;50.928;7.084;2023-03-01T02:18:21;0.50;56.70
37560;DHT22;23398;50.928;7.084;2023-03-01T02:21:04;0.60;56.90
37560;DHT22;23398;50.928;7.084;2023-03-01T02:23:33;0.30;56.80
37560;DHT22;23398;50.928;7.084;2023-03-01T02:26:18;0.20;56.60
37560;DHT22;23398;50.928;7.084;2023-03-01T02:28:44;0.10;56.80
37560;DHT22;23398;50.928;7.084;2023-03-01T02:31:14;0.10;57.70
37560;DHT22;23398;50.928;7.084;2023-03-01T02:33:59;0.00;57.30
37560;DHT22;23398;50.928;7.084;2023-03-01T02:36:29;-0.10;57.40
37560;DHT22;23398;50.928;7.084;2023-03-01T02:38:57;-0.10;57.50
37560;DHT22;23398;50.928;7.084;2023-03-01T02:41:26;-0.20;57.50
37560;DHT22;23398;50.928;7.084;2023-03-01T02:43:53;-0.20;57.60
37560;DHT22;23398;50.928;7.084;2023-03-01T02:46:24;-0.30;57.60
37560;DHT22;23398;50.928;7.084;2023-03-01T02:48:53;-0.30;57.60
37560;DHT22;23398;50.928;7.084;2023-03-01T02:54:29;-0.50;58.00
37560;DHT22;23398;50.928;7.084;2023-03-01T02:56:56;-0.50;58.30
37560;DHT22;23398;50.928;7.084;2023-03-01T02:59:26;-0.50;58.20
37560;DHT22;23398;50.928;7.084;2023-03-01T03:01:52;-0.60;58.10
37560;DHT22;23398;50.928;7.084;2023-03-01T03:04:19;-0.60;58.00
37560;DHT22;23398;50.928;7.084;2023-03-01T03:06:47;-0.70;58.00
37560;DHT22;23398;50.928;7.084;2023-03-01T03:09:14;-0.70;58.10
37560;DHT22;23398;50.928;7.084;2023-03-01T03:11:39;-0.80;58.20
37560;DHT22;23398;50.928;7.084;2023-03-01T03:14:07;-0.80;58.30
37560;DHT22;23398;50.928;7.084;2023-03-01T03:16:41;-0.80;58.40
37560;DHT22;23398;50.928;7.084;2023-03-01T03:19:07;-0.90;58.40
37560;DHT22;23398;50.928;7.084;2023-03-01T03:21:33;-0.90;58.50
37560;DHT22;23398;50.928;7.084;2023-03-01T03:23:59;-1.00;58.40
37560;DHT22;23398;50.928;7.084;2023-03-01T03:26:24;-1.00;58.40
37560;DHT22;23398;50.928;7.084;2023-03-01T03:28:50;-1.00;58.50
37560;DHT22;23398;50.928;7.084;2023-03-01T03:31:16;-1.10;58.50
37560;DHT22;23398;50.928;7.084;2023-03-01T03:33:41;-1.10;58.60
37560;DHT22;23398;50.928;7.084;2023-03-01T03:36:07;-1.10;58.60
37560;DHT22;23398;50.928;7.084;2023-03-01T03:38:38;-1.10;58.70
37560;DHT22;23398;50.928;7.084;2023-03-01T03:41:06;-1.20;58.60
37560;DHT22;23398;50.928;7.084;2023-03-01T03:43:35;-1.20;59.30
37560;DHT22;23398;50.928;7.084;2023-03-01T03:46:01;-1.20;58.90
37560;DHT22;23398;50.928;7.084;2023-03-01T03:48:31;-1.20;59.10
37560;DHT22;23398;50.928;7.084;2023-03-01T03:50:58;-1.20;59.30
37560;DHT22;23398;50.928;7.084;2023-03-01T03:53:25;-1.20;59.60
37560;DHT22;23398;50.928;7.084;2023-03-01T03:55:52;-1.20;59.80
37560;DHT22;23398;50.928;7.084;2023-03-01T03:58:20;-1.20;59.90
37560;DHT22;23398;50.928;7.084;2023-03-01T04:00:48;-1.20;59.90
37560;DHT22;23398;50.928;7.084;2023-03-01T04:03:15;-1.20;60.00
37560;DHT22;23398;50.928;7.084;2023-03-01T04:05:42;-1.20;59.80
37560;DHT22;23398;50.928;7.084;2023-03-01T04:08:08;-1.20;59.80
37560;DHT22;23398;50.928;7.084;2023-03-01T04:10:40;-1.30;59.70
37560;DHT22;23398;50.928;7.084;2023-03-01T04:13:09;-1.30;59.60
37560;DHT22;23398;50.928;7.084;2023-03-01T04:15:35;-1.30;59.60
37560;DHT22;23398;50.928;7.084;2023-03-01T04:18:02;-1.30;59.50
37560;DHT22;23398;50.928;7.084;2023-03-01T04:20:30;-1.40;59.40
37560;DHT22;23398;50.928;7.084;2023-03-01T04:23:04;-1.40;59.40
37560;DHT22;23398;50.928;7.084;2023-03-01T04:25:39;-1.40;59.60
37560;DHT22;23398;50.928;7.084;2023-03-01T04:28:06;-1.40;59.60
37560;DHT22;23398;50.928;7.084;2023-03-01T04:30:32;-1.50;59.50
37560;DHT22;23398;50.928;7.084;2023-03-01T04:33:04;-1.50;59.50
37560;DHT22;23398;50.928;7.084;2023-03-01T04:35:31;-1.50;59.40
37560;DHT22;23398;50.928;7.084;2023-03-01T04:37:57;-1.60;59.20
37560;DHT22;23398;50.928;7.084;2023-03-01T04:40:23;-1.60;59.20
37560;DHT22;23398;50.928;7.084;2023-03-01T04:42:49;-1.60;59.30
37560;DHT22;23398;50.928;7.084;2023-03-01T04:45:14;-1.70;59.60
37560;DHT22;23398;50.928;7.084;2023-03-01T04:47:41;-1.70;59.80
37560;DHT22;23398;50.928;7.084;2023-03-01T04:50:08;-1.60;59.90
37560;DHT22;23398;50.928;7.084;2023-03-01T04:52:35;-1.60;60.00
37560;DHT22;23398;50.928;7.084;2023-03-01T04:55:01;-1.70;59.90
37560;DHT22;23398;50.928;7.084;2023-03-01T04:57:26;-1.70;59.80
37560;DHT22;23398;50.928;7.084;2023-03-01T04:59:52;-1.70;59.80
37560;DHT22;23398;50.928;7.084;2023-03-01T05:02:18;-1.70;60.00
37560;DHT22;23398;50.928;7.084;2023-03-01T05:04:43;-1.70;59.70
37560;DHT22;23398;50.928;7.084;2023-03-01T05:07:09;-1.80;59.60
37560;DHT22;23398;50.928;7.084;2023-03-01T05:09:34;-1.80;59.70
37560;DHT22;23398;50.928;7.084;2023-03-01T05:12:00;-2.90;58.90
37560;DHT22;23398;50.928;7.084;2023-03-01T05:14:26;-1.80;59.80
37560;DHT22;23398;50.928;7.084;2023-03-01T05:16:51;-1.90;59.70
37560;DHT22;23398;50.928;7.084;2023-03-01T05:19:17;-1.90;59.80
37560;DHT22;23398;50.928;7.084;2023-03-01T05:21:48;-1.90;59.90
37560;DHT22;23398;50.928;7.084;2023-03-01T05:24:31;-1.90;59.80
37560;DHT22;23398;50.928;7.084;2023-03-01T05:26:57;-1.90;59.70
37560;DHT22;23398;50.928;7.084;2023-03-01T05:29:25;-2.00;59.60
37560;DHT22;23398;50.928;7.084;2023-03-01T05:31:52;-2.00;59.70
37560;DHT22;23398;50.928;7.084;2023-03-01T05:34:22;-2.00;59.70
37560;DHT22;23398;50.928;7.084;2023-03-01T05:36:48;-2.10;59.60
37560;DHT22;23398;50.928;7.084;2023-03-01T05:39:14;-2.10;59.70
37560;DHT22;23398;50.928;7.084;2023-03-01T05:41:40;-2.10;59.70
37560;DHT22;23398;50.928;7.084;2023-03-01T05:44:06;-2.10;59.70
37560;DHT22;23398;50.928;7.084;2023-03-01T05:46:32;-2.00;59.90
37560;DHT22;23398;50.928;7.084;2023-03-01T05:48:57;-2.20;59.80
37560;DHT22;23398;50.928;7.084;2023-03-01T05:51:23;-2.20;59.80
37560;DHT22;23398;50.928;7.084;2023-03-01T05:53:49;-2.20;60.00
37560;DHT22;23398;50.928;7.084;2023-03-01T05:56:15;-2.20;60.10
37560;DHT22;23398;50.928;7.084;2023-03-01T05:58:40;-2.20;60.20
37560;DHT22;23398;50.928;7.084;2023-03-01T06:01:11;-1.50;61.00
37560;DHT22;23398;50.928;7.084;2023-03-01T06:03:37;-2.20;60.30
37560;DHT22;23398;50.928;7.084;2023-03-01T06:06:03;-2.20;60.30
37560;DHT22;23398;50.928;7.084;2023-03-01T06:08:28;-2.20;60.30
37560;DHT22;23398;50.928;7.084;2023-03-01T06:10:54;-2.20;60.30
37560;DHT22;23398;50.928;7.084;2023-03-01T06:13:20;-2.30;60.40
37560;DHT22;23398;50.928;7.084;2023-03-01T06:15:45;-2.20;61.80
37560;DHT22;23398;50.928;7.084;2023-03-01T06:18:11;-2.30;61.50
37560;DHT22;23398;50.928;7.084;2023-03-01T06:20:36;-2.30;61.20
37560;DHT22;23398;50.928;7.084;2023-03-01T06:23:02;-2.30;60.00
37560;DHT22;23398;50.928;7.084;2023-03-01T06:25:27;-2.30;60.60
37560;DHT22;23398;50.928;7.084;2023-03-01T06:27:53;-2.30;60.50
37560;DHT22;23398;50.928;7.084;2023-03-01T06:30:20;-2.30;60.60
37560;DHT22;23398;50.928;7.084;2023-03-01T06:32:46;-2.30;60.70
37560;DHT22;23398;50.928;7.084;2023-03-01T06:35:14;-2.30;60.80
37560;DHT22;23398;50.928;7.084;2023-03-01T06:37:43;-2.30;60.90
37560;DHT22;23398;50.928;7.084;2023-03-01T06:40:09;-2.30;60.90
37560;DHT22;23398;50.928;7.084;2023-03-01T06:42:38;-2.20;60.90
37560;DHT22;23398;50.928;7.084;2023-03-01T06:45:05;-2.20;61.00
37560;DHT22;23398;50.928;7.084;2023-03-01T06:47:32;-2.20;61.00
37560;DHT22;23398;50.928;7.084;2023-03-01T06:49:59;-2.20;61.00
37560;DHT22;23398;50.928;7.084;2023-03-01T06:52:25;-2.20;61.00
37560;DHT22;23398;50.928;7.084;2023-03-01T06:54:50;-2.20;61.10
37560;DHT22;23398;50.928;7.084;2023-03-01T06:57:16;-2.10;61.40
37560;DHT22;23398;50.928;7.084;2023-03-01T06:59:42;-2.10;61.50
37560;DHT22;23398;50.928;7.084;2023-03-01T07:02:10;-1.90;61.90
37560;DHT22;23398;50.928;7.084;2023-03-01T07:04:37;-2.00;61.90
37560;DHT22;23398;50.928;7.084;2023-03-01T07:07:03;-2.00;62.00
37560;DHT22;23398;50.928;7.084;2023-03-01T07:09:29;-1.90;62.30
37560;DHT22;23398;50.928;7.084;2023-03-01T07:11:55;-1.90;62.40
37560;DHT22;23398;50.928;7.084;2023-03-01T07:14:21;-1.80;62.60
37560;DHT22;23398;50.928;7.084;2023-03-01T07:16:47;-1.70;62.70
37560;DHT22;23398;50.928;7.084;2023-03-01T07:19:13;-1.60;62.70
37560;DHT22;23398;50.928;7.084;2023-03-01T07:21:38;-1.60;62.80
37560;DHT22;23398;50.928;7.084;2023-03-01T07:24:06;-1.50;62.80
37560;DHT22;23398;50.928;7.084;2023-03-01T07:26:32;-1.40;63.00
37560;DHT22;23398;50.928;7.084;2023-03-01T07:29:05;-1.30;63.20
37560;DHT22;23398;50.928;7.084;2023-03-01T07:31:31;-1.10;63.60
37560;DHT22;23398;50.928;7.084;2023-03-01T07:33:57;-1.00;63.70
37560;DHT22;23398;50.928;7.084;2023-03-01T07:36:23;-0.80;63.90
37560;DHT22;23398;50.928;7.084;2023-03-01T07:38:49;-0.60;64.40
37560;DHT22;23398;50.928;7.084;2023-03-01T07:41:14;-0.30;65.50
37560;DHT22;23398;50.928;7.084;2023-03-01T07:43:40;0.10;68.50
37560;DHT22;23398;50.928;7.084;2023-03-01T07:46:05;0.70;70.30
37560;DHT22;23398;50.928;7.084;2023-03-01T07:48:32;1.50;72.40
37560;DHT22;23398;50.928;7.084;2023-03-01T07:51:03;2.50;73.40
37560;DHT22;23398;50.928;7.084;2023-03-01T07:53:29;3.60;73.20
37560;DHT22;23398;50.928;7.084;2023-03-01T07:56:06;4.80;72.80
37560;DHT22;23398;50.928;7.084;2023-03-01T07:58:34;6.20;71.10
37560;DHT22;23398;50.928;7.084;2023-03-01T08:01:05;7.50;70.20
37560;DHT22;23398;50.928;7.084;2023-03-01T08:03:31;8.80;67.90
37560;DHT22;23398;50.928;7.084;2023-03-01T08:06:00;10.10;65.30
37560;DHT22;23398;50.928;7.084;2023-03-01T08:08:26;11.40;62.60
37560;DHT22;23398;50.928;7.084;2023-03-01T08:10:51;12.60;60.80
37560;DHT22;23398;50.928;7.084;2023-03-01T08:13:17;13.80;58.60
37560;DHT22;23398;50.928;7.084;2023-03-01T08:15:48;14.90;56.80
37560;DHT22;23398;50.928;7.084;2023-03-01T08:18:14;16.00;55.40
37560;DHT22;23398;50.928;7.084;2023-03-01T08:20:40;16.90;53.80
37560;DHT22;23398;50.928;7.084;2023-03-01T08:23:05;17.90;52.30
37560;DHT22;23398;50.928;7.084;2023-03-01T08:25:31;18.80;50.80
37560;DHT22;23398;50.928;7.084;2023-03-01T08:27:56;19.60;49.50
37560;DHT22;23398;50.928;7.084;2023-03-01T08:30:22;20.30;48.10
37560;DHT22;23398;50.928;7.084;2023-03-01T08:32:49;21.00;46.80
37560;DHT22;23398;50.928;7.084;2023-03-01T08:35:15;21.50;45.40
37560;DHT22;23398;50.928;7.084;2023-03-01T08:37:41;22.00;44.20
37560;DHT22;23398;50.928;7.084;2023-03-01T08:40:07;22.30;43.00
37560;DHT22;23398;50.928;7.084;2023-03-01T08:42:33;22.50;41.60
37560;DHT22;23398;50.928;7.084;2023-03-01T08:44:58;22.60;40.10
37560;DHT22;23398;50.928;7.084;2023-03-01T08:47:24;22.70;40.00
37560;DHT22;23398;50.928;7.084;2023-03-01T08:49:50;22.80;39.90
37560;DHT22;23398;50.928;7.084;2023-03-01T08:52:16;22.80;39.30
37560;DHT22;23398;50.928;7.084;2023-03-01T08:54:41;22.90;38.80
37560;DHT22;23398;50.928;7.084;2023-03-01T08:57:07;23.10;39.30
37560;DHT22;23398;50.928;7.084;2023-03-01T08:59:34;23.10;38.60
37560;DHT22;23398;50.928;7.084;2023-03-01T09:02:03;23.20;38.00
37560;DHT22;23398;50.928;7.084;2023-03-01T09:04:29;23.20;37.80
37560;DHT22;23398;50.928;7.084;2023-03-01T09:06:55;23.10;37.50
37560;DHT22;23398;50.928;7.084;2023-03-01T09:09:20;23.10;37.20
37560;DHT22;23398;50.928;7.084;2023-03-01T09:11:46;23.30;37.40
37560;DHT22;23398;50.928;7.084;2023-03-01T09:14:15;23.30;36.60
37560;DHT22;23398;50.928;7.084;2023-03-01T09:16:40;23.30;36.40
37560;DHT22;23398;50.928;7.084;2023-03-01T09:19:06;23.40;36.90
37560;DHT22;23398;50.928;7.084;2023-03-01T09:21:32;23.40;36.20
37560;DHT22;23398;50.928;7.084;2023-03-01T09:23:58;23.60;35.60
37560;DHT22;23398;50.928;7.084;2023-03-01T09:26:24;23.70;36.20
37560;DHT22;23398;50.928;7.084;2023-03-01T09:28:52;23.80;35.80
37560;DHT22;23398;50.928;7.084;2023-03-01T09:31:19;24.00;33.80
37560;DHT22;23398;50.928;7.084;2023-03-01T09:33:49;24.20;34.80
37560;DHT22;23398;50.928;7.084;2023-03-01T09:36:17;24.50;35.20
37560;DHT22;23398;50.928;7.084;2023-03-01T09:38:43;24.80;35.70
37560;DHT22;23398;50.928;7.084;2023-03-01T09:43:48;25.20;34.50
37560;DHT22;23398;50.928;7.084;2023-03-01T09:46:20;25.30;33.40
37560;DHT22;23398;50.928;7.084;2023-03-01T09:49:00;25.10;33.40
37560;DHT22;23398;50.928;7.084;2023-03-01T09:51:31;24.80;32.00
37560;DHT22;23398;50.928;7.084;2023-03-01T09:53:57;24.60;32.30
37560;DHT22;23398;50.928;7.084;2023-03-01T09:56:34;24.30;32.40
37560;DHT22;23398;50.928;7.084;2023-03-01T09:59:25;24.10;31.30
37560;DHT22;23398;50.928;7.084;2023-03-01T10:04:50;23.70;31.90
37560;DHT22;23398;50.928;7.084;2023-03-01T10:10:21;23.30;31.50
37560;DHT22;23398;50.928;7.084;2023-03-01T10:12:49;22.90;31.40
37560;DHT22;23398;50.928;7.084;2023-03-01T10:15:18;22.70;31.60
37560;DHT22;23398;50.928;7.084;2023-03-01T10:17:53;22.50;30.20
37560;DHT22;23398;50.928;7.084;2023-03-01T10:23:11;22.00;31.10
37560;DHT22;23398;50.928;7.084;2023-03-01T10:29:00;21.50;31.40
37560;DHT22;23398;50.928;7.084;2023-03-01T10:31:43;21.10;31.40
37560;DHT22;23398;50.928;7.084;2023-03-01T10:34:32;20.60;31.00
37560;DHT22;23398;50.928;7.084;2023-03-01T10:37:22;20.00;30.60
37560;DHT22;23398;50.928;7.084;2023-03-01T10:40:05;19.50;31.00
37560;DHT22;23398;50.928;7.084;2023-03-01T10:42:48;18.80;31.10
37560;DHT22;23398;50.928;7.084;2023-03-01T10:45:35;18.10;31.00
37560;DHT22;23398;50.928;7.084;2023-03-01T10:48:23;17.60;31.00
37560;DHT22;23398;50.928;7.084;2023-03-01T10:51:05;17.00;31.40
37560;DHT22;23398;50.928;7.084;2023-03-01T10:53:37;16.40;31.40
37560;DHT22;23398;50.928;7.084;2023-03-01T10:56:11;15.90;31.90
37560;DHT22;23398;50.928;7.084;2023-03-01T10:58:40;15.40;32.30
37560;DHT22;23398;50.928;7.084;2023-03-01T11:01:28;14.90;32.60
37560;DHT22;23398;50.928;7.084;2023-03-01T11:06:32;13.60;33.30
37560;DHT22;23398;50.928;7.084;2023-03-01T11:09:13;13.20;33.80
37560;DHT22;23398;50.928;7.084;2023-03-01T11:11:40;12.70;33.80
37560;DHT22;23398;50.928;7.084;2023-03-01T11:14:20;12.30;34.20
37560;DHT22;23398;50.928;7.084;2023-03-01T11:16:57;11.90;34.80
37560;DHT22;23398;50.928;7.084;2023-03-01T11:19:23;11.60;35.10
37560;DHT22;23398;50.928;7.084;2023-03-01T11:24:43;11.10;35.50
37560;DHT22;23398;50.928;7.084;2023-03-01T11:27:25;11.00;36.00
37560;DHT22;23398;50.928;7.084;2023-03-01T11:32:28;10.60;36.60
37560;DHT22;23398;50.928;7.084;2023-03-01T11:35:01;10.60;37.40
37560;DHT22;23398;50.928;7.084;2023-03-01T11:40:24;10.40;37.20
37560;DHT22;23398;50.928;7.084;2023-03-01T11:42:59;10.30;37.40
37560;DHT22;23398;50.928;7.084;2023-03-01T11:45:33;10.30;37.40
37560;DHT22;23398;50.928;7.084;2023-03-01T11:50:47;10.20;37.40
37560;DHT22;23398;50.928;7.084;2023-03-01T11:53:45;10.20;37.60
37560;DHT22;23398;50.928;7.084;2023-03-01T12:05:28;10.30;38.60
37560;DHT22;23398;50.928;7.084;2023-03-01T12:08:31;10.30;38.70
37560;DHT22;23398;50.928;7.084;2023-03-01T12:22:13;10.40;39.10
37560;DHT22;23398;50.928;7.084;2023-03-01T12:25:20;10.40;38.90
37560;DHT22;23398;50.928;7.084;2023-03-01T12:33:19;10.50;39.60
37560;DHT22;23398;50.928;7.084;2023-03-01T12:36:25;10.50;39.40
37560;DHT22;23398;50.928;7.084;2023-03-01T12:48:22;10.70;39.30
37560;DHT22;23398;50.928;7.084;2023-03-01T12:50:52;10.80;39.30
37560;DHT22;23398;50.928;7.084;2023-03-01T12:53:26;10.80;39.20
37560;DHT22;23398;50.928;7.084;2023-03-01T12:55:54;10.80;39.20
37560;DHT22;23398;50.928;7.084;2023-03-01T12:58:32;10.80;39.40
37560;DHT22;23398;50.928;7.084;2023-03-01T13:06:44;10.90;38.80
37560;DHT22;23398;50.928;7.084;2023-03-01T13:11:57;11.00;39.30
37560;DHT22;23398;50.928;7.084;2023-03-01T13:16:52;11.00;39.30
37560;DHT22;23398;50.928;7.084;2023-03-01T13:19:27;11.10;39.30
37560;DHT22;23398;50.928;7.084;2023-03-01T13:21:58;11.10;39.50
37560;DHT22;23398;50.928;7.084;2023-03-01T13:29:47;11.30;39.00
37560;DHT22;23398;50.928;7.084;2023-03-01T13:32:33;11.30;39.40
37560;DHT22;23398;50.928;7.084;2023-03-01T13:35:02;11.40;39.80
37560;DHT22;23398;50.928;7.084;2023-03-01T13:37:37;11.50;39.70
37560;DHT22;23398;50.928;7.084;2023-03-01T13:40:57;11.50;39.60
37560;DHT22;23398;50.928;7.084;2023-03-01T13:42:55;11.50;40.20
37560;DHT22;23398;50.928;7.084;2023-03-01T13:45:36;11.50;39.40
37560;DHT22;23398;50.928;7.084;2023-03-01T13:48:15;11.50;39.50
37560;DHT22;23398;50.928;7.084;2023-03-01T13:50:48;11.60;39.70
37560;DHT22;23398;50.928;7.084;2023-03-01T13:53:22;11.50;39.60
37560;DHT22;23398;50.928;7.084;2023-03-01T13:56:00;11.60;39.60
37560;DHT22;23398;50.928;7.084;2023-03-01T14:01:23;11.60;39.60
37560;DHT22;23398;50.928;7.084;2023-03-01T14:03:49;11.60;39.70
37560;DHT22;23398;50.928;7.084;2023-03-01T14:06:18;11.60;39.90
37560;DHT22;23398;50.928;7.084;2023-03-01T14:08:47;11.60;40.00
37560;DHT22;23398;50.928;7.084;2023-03-01T14:11:35;11.70;40.10
37560;DHT22;23398;50.928;7.084;2023-03-01T14:19:56;11.70;39.90
37560;DHT22;23398;50.928;7.084;2023-03-01T14:22:30;11.70;39.80
37560;DHT22;23398;50.928;7.084;2023-03-01T14:25:04;11.70;39.80
37560;DHT22;23398;50.928;7.084;2023-03-01T14:27:38;11.70;39.60
37560;DHT22;23398;50.928;7.084;2023-03-01T14:30:23;11.70;39.80
37560;DHT22;23398;50.928;7.084;2023-03-01T14:33:01;11.70;39.70
37560;DHT22;23398;50.928;7.084;2023-03-01T14:35:30;11.70;39.70
37560;DHT22;23398;50.928;7.084;2023-03-01T14:37:57;11.80;40.00
37560;DHT22;23398;50.928;7.084;2023-03-01T14:40:32;11.80;40.00
37560;DHT22;23398;50.928;7.084;2023-03-01T14:42:59;11.80;39.90
37560;DHT22;23398;50.928;7.084;2023-03-01T14:45:27;11.80;40.10
37560;DHT22;23398;50.928;7.084;2023-03-01T14:47:54;11.80;40.30
37560;DHT22;23398;50.928;7.084;2023-03-01T14:50:29;11.80;40.50
37560;DHT22;23398;50.928;7.084;2023-03-01T14:53:01;11.80;40.50
37560;DHT22;23398;50.928;7.084;2023-03-01T14:55:40;11.70;40.60
37560;DHT22;23398;50.928;7.084;2023-03-01T14:58:14;11.70;40.70
37560;DHT22;23398;50.928;7.084;2023-03-01T15:00:48;11.70;40.90
37560;DHT22;23398;50.928;7.084;2023-03-01T15:03:20;11.70;41.00
37560;DHT22;23398;50.928;7.084;2023-03-01T15:05:49;11.60;41.00
37560;DHT22;23398;50.928;7.084;2023-03-01T15:08:18;11.60;41.10
37560;DHT22;23398;50.928;7.084;2023-03-01T15:11:01;11.50;41.10
37560;DHT22;23398;50.928;7.084;2023-03-01T15:13:32;11.50;41.40
37560;DHT22;23398;50.928;7.084;2023-03-01T15:16:12;11.50;41.50
37560;DHT22;23398;50.928;7.084;2023-03-01T15:18:44;11.50;41.60
37560;DHT22;23398;50.928;7.084;2023-03-01T15:23:52;11.40;41.50
37560;DHT22;23398;50.928;7.084;2023-03-01T15:26:29;11.40;41.60
37560;DHT22;23398;50.928;7.084;2023-03-01T15:28:58;11.30;41.70
37560;DHT22;23398;50.928;7.084;2023-03-01T15:31:34;11.30;41.60
37560;DHT22;23398;50.928;7.084;2023-03-01T15:34:28;11.30;41.70
37560;DHT22;23398;50.928;7.084;2023-03-01T15:36:57;11.20;42.00
37560;DHT22;23398;50.928;7.084;2023-03-01T15:41:49;11.30;42.30
37560;DHT22;23398;50.928;7.084;2023-03-01T15:44:18;11.40;42.30
37560;DHT22;23398;50.928;7.084;2023-03-01T15:46:50;11.50;42.40
37560;DHT22;23398;50.928;7.084;2023-03-01T15:49:39;11.60;42.40
37560;DHT22;23398;50.928;7.084;2023-03-01T15:52:16;11.80;42.20
37560;DHT22;23398;50.928;7.084;2023-03-01T15:54:44;11.90;42.20
37560;DHT22;23398;50.928;7.084;2023-03-01T15:57:14;12.00;42.20
37560;DHT22;23398;50.928;7.084;2023-03-01T15:59:40;12.10;42.00
37560;DHT22;23398;50.928;7.084;2023-03-01T16:02:13;12.10;41.80
37560;DHT22;23398;50.928;7.084;2023-03-01T16:04:39;12.10;41.40
37560;DHT22;23398;50.928;7.084;2023-03-01T16:07:05;12.10;41.30
37560;DHT22;23398;50.928;7.084;2023-03-01T16:09:31;12.00;41.00
37560;DHT22;23398;50.928;7.084;2023-03-01T16:11:57;12.00;41.10
37560;DHT22;23398;50.928;7.084;2023-03-01T16:14:23;11.80;40.90
37560;DHT22;23398;50.928;7.084;2023-03-01T16:16:49;11.70;40.80
37560;DHT22;23398;50.928;7.084;2023-03-01T16:19:15;11.60;40.80
37560;DHT22;23398;50.928;7.084;2023-03-01T16:21:42;11.50;40.70
37560;DHT22;23398;50.928;7.084;2023-03-01T16:24:09;11.50;40.80
37560;DHT22;23398;50.928;7.084;2023-03-01T16:26:36;11.30;40.70
37560;DHT22;23398;50.928;7.084;2023-03-01T16:29:02;11.30;41.00
37560;DHT22;23398;50.928;7.084;2023-03-01T16:31:28;11.20;41.20
37560;DHT22;23398;50.928;7.084;2023-03-01T16:33:58;11.10;41.10
37560;DHT22;23398;50.928;7.084;2023-03-01T16:36:25;11.00;41.10
37560;DHT22;23398;50.928;7.084;2023-03-01T16:38:54;10.90;41.20
37560;DHT22;23398;50.928;7.084;2023-03-01T16:41:22;10.80;41.30
37560;DHT22;23398;50.928;7.084;2023-03-01T16:43:48;10.70;41.20
37560;DHT22;23398;50.928;7.084;2023-03-01T16:46:24;10.60;41.40
37560;DHT22;23398;50.928;7.084;2023-03-01T16:48:51;10.50;41.40
37560;DHT22;23398;50.928;7.084;2023-03-01T16:51:16;10.50;41.50
37560;DHT22;23398;50.928;7.084;2023-03-01T16:53:42;10.40;41.60
37560;DHT22;23398;50.928;7.084;2023-03-01T16:56:10;10.30;41.60
37560;DHT22;23398;50.928;7.084;2023-03-01T16:58:37;10.20;41.80
37560;DHT22;23398;50.928;7.084;2023-03-01T17:01:05;10.10;41.90
37560;DHT22;23398;50.928;7.084;2023-03-01T17:03:31;10.00;41.80
37560;DHT22;23398;50.928;7.084;2023-03-01T17:05:56;9.90;42.70
37560;DHT22;23398;50.928;7.084;2023-03-01T17:08:25;9.80;42.80
37560;DHT22;23398;50.928;7.084;2023-03-01T17:10:51;9.70;42.90
37560;DHT22;23398;50.928;7.084;2023-03-01T17:13:16;9.60;42.80
37560;DHT22;23398;50.928;7.084;2023-03-01T17:15:42;9.60;43.00
37560;DHT22;23398;50.928;7.084;2023-03-01T17:18:08;9.50;43.10
37560;DHT22;23398;50.928;7.084;2023-03-01T17:20:35;9.40;43.10
37560;DHT22;23398;50.928;7.084;2023-03-01T17:23:01;9.40;43.30
37560;DHT22;23398;50.928;7.084;2023-03-01T17:25:27;9.30;43.40
37560;DHT22;23398;50.928;7.084;2023-03-01T17:27:53;9.20;43.50
37560;DHT22;23398;50.928;7.084;2023-03-01T17:30:19;9.20;43.70